sensor_id;sensor_type;location;lat;lon;timestamp;P1;durP1;ratioP1;P2;durP2;ratioP2
70332;SDS011;57747;43.548;-5.704;2023-02-18T00:00:12;83.63;;;24.60;;
70332;SDS011;57747;43.548;-5.704;2023-02-18T00:02:38;110.15;;;25.92;;
70332;SDS011;57747;43.548;-5.704;2023-02-18T00:05:04;99.22;;;22.85;;
70332;SDS011;57747;43.548;-5.704;2023-02-18T00:07:39;75.03;;;23.50;;
70332;SDS011;57747;43.548;-5.704;2023-02-18T00:10:05;79.63;;;22.92;;
70332;SDS011;57747;43.548;-5.704;2023-02-18T00:12:34;90.38;;;23.90;;
70332;SDS011;57747;43.548;-5.704;2023-02-18T00:14:59;62.83;;;24.45;;
70332;SDS011;57747;43.548;-5.704;2023-02-18T00:17:25;64.22;;;22.58;;
70332;SDS011;57747;43.548;-5.704;2023-02-18T00:19:50;68.43;;;23.02;;
70332;SDS011;57747;43.548;-5.704;2023-02-18T00:22:15;58.38;;;22.77;;
70332;SDS011;57747;43.548;-5.704;2023-02-18T00:24:41;58.33;;;22.73;;
70332;SDS011;57747;43.548;-5.704;2023-02-18T00:27:09;78.43;;;26.50;;
70332;SDS011;57747;43.548;-5.704;2023-02-18T00:29:35;106.45;;;27.40;;
70332;SDS011;57747;43.548;-5.704;2023-02-18T00:32:02;74.13;;;26.23;;
70332;SDS011;57747;43.548;-5.704;2023-02-18T00:34:30;74.10;;;28.55;;
70332;SDS011;57747;43.548;-5.704;2023-02-18T00:36:55;68.63;;;26.00;;
70332;SDS011;57747;43.548;-5.704;2023-02-18T00:39:21;81.20;;;25.73;;
70332;SDS011;57747;43.548;-5.704;2023-02-18T00:41:49;80.68;;;26.38;;
70332;SDS011;57747;43.548;-5.704;2023-02-18T00:44:17;71.78;;;23.63;;
70332;SDS011;57747;43.548;-5.704;2023-02-18T00:46:43;85.30;;;27.23;;
70332;SDS011;57747;43.548;-5.704;2023-02-18T00:49:08;90.53;;;28.27;;
70332;SDS011;57747;43.548;-5.704;2023-02-18T00:51:39;73.75;;;23.90;;
70332;SDS011;57747;43.548;-5.704;2023-02-18T00:54:07;80.13;;;24.67;;
70332;SDS011;57747;43.548;-5.704;2023-02-18T00:56:32;89.07;;;25.48;;
70332;SDS011;57747;43.548;-5.704;2023-02-18T01:01:30;71.80;;;22.80;;
70332;SDS011;57747;43.548;-5.704;2023-02-18T01:03:56;92.78;;;24.77;;
70332;SDS011;57747;43.548;-5.704;2023-02-18T01:06:24;67.88;;;22.10;;
70332;SDS011;57747;43.548;-5.704;2023-02-18T01:08:49;63.95;;;23.92;;
70332;SDS011;57747;43.548;-5.704;2023-02-18T01:11:17;77.55;;;22.15;;
70332;SDS011;57747;43.548;-5.704;2023-02-18T01:13:45;66.13;;;25.45;;
70332;SDS011;57747;43.548;-5.704;2023-02-18T01:16:13;69.07;;;26.15;;
70332;SDS011;57747;43.548;-5.704;2023-02-18T01:18:39;65.80;;;28.17;;
70332;SDS011;57747;43.548;-5.704;2023-02-18T01:21:05;97.45;;;32.17;;
70332;SDS011;57747;43.548;-5.704;2023-02-18T01:23:33;88.95;;;33.70;;
70332;SDS011;57747;43.548;-5.704;2023-02-18T01:25:58;68.00;;;28.60;;
70332;SDS011;57747;43.548;-5.704;2023-02-18T01:28:24;60.30;;;26.52;;
70332;SDS011;57747;43.548;-5.704;2023-02-18T01:30:50;78.85;;;28.33;;
70332;SDS011;57747;43.548;-5.704;2023-02-18T01:33:16;58.10;;;24.38;;
70332;SDS011;57747;43.548;-5.704;2023-02-18T01:35:41;72.95;;;25.90;;
70332;SDS011;57747;43.548;-5.704;2023-02-18T01:38:07;66.13;;;26.50;;
70332;SDS011;57747;43.548;-5.704;2023-02-18T01:40:33;59.20;;;24.02;;
70332;SDS011;57747;43.548;-5.704;2023-02-18T01:43:00;58.20;;;24.40;;
70332;SDS011;57747;43.548;-5.704;2023-02-18T01:47:58;58.35;;;24.90;;
70332;SDS011;57747;43.548;-5.704;2023-02-18T01:50:24;47.45;;;21.45;;
70332;SDS011;57747;43.548;-5.704;2023-02-18T01:52:50;50.90;;;24.35;;
70332;SDS011;57747;43.548;-5.704;2023-02-18T01:55:15;59.28;;;23.30;;
70332;SDS011;57747;43.548;-5.704;2023-02-18T01:57:40;62.58;;;23.30;;
70332;SDS011;57747;43.548;-5.704;2023-02-18T02:00:12;63.45;;;22.63;;
70332;SDS011;57747;43.548;-5.704;2023-02-18T02:02:38;53.13;;;23.73;;
70332;SDS011;57747;43.548;-5.704;2023-02-18T02:05:04;59.45;;;23.00;;
70332;SDS011;57747;43.548;-5.704;2023-02-18T02:07:30;50.65;;;22.70;;
70332;SDS011;57747;43.548;-5.704;2023-02-18T02:09:56;73.55;;;25.20;;
70332;SDS011;57747;43.548;-5.704;2023-02-18T02:17:54;52.03;;;21.20;;
70332;SDS011;57747;43.548;-5.704;2023-02-18T02:28:09;45.05;;;18.80;;
70332;SDS011;57747;43.548;-5.704;2023-02-18T02:38:53;46.20;;;21.92;;
70332;SDS011;57747;43.548;-5.704;2023-02-18T02:41:26;45.65;;;23.02;;
70332;SDS011;57747;43.548;-5.704;2023-02-18T02:46:46;62.42;;;22.90;;
70332;SDS011;57747;43.548;-5.704;2023-02-18T02:49:20;62.88;;;24.67;;
70332;SDS011;57747;43.548;-5.704;2023-02-18T02:52:11;79.93;;;27.25;;
70332;SDS011;57747;43.548;-5.704;2023-02-18T02:54:34;74.20;;;25.00;;
70332;SDS011;57747;43.548;-5.704;2023-02-18T02:57:07;65.68;;;28.52;;
70332;SDS011;57747;43.548;-5.704;2023-02-18T03:02:54;70.80;;;27.48;;
70332;SDS011;57747;43.548;-5.704;2023-02-18T03:11:08;56.45;;;21.20;;
70332;SDS011;57747;43.548;-5.704;2023-02-18T03:16:23;54.65;;;23.77;;
70332;SDS011;57747;43.548;-5.704;2023-02-18T03:18:51;51.42;;;21.77;;
70332;SDS011;57747;43.548;-5.704;2023-02-18T03:21:24;69.65;;;23.85;;
70332;SDS011;57747;43.548;-5.704;2023-02-18T03:26:19;77.43;;;25.83;;
70332;SDS011;57747;43.548;-5.704;2023-02-18T03:28:45;72.20;;;24.20;;
70332;SDS011;57747;43.548;-5.704;2023-02-18T03:31:12;47.22;;;21.80;;
70332;SDS011;57747;43.548;-5.704;2023-02-18T03:33:41;54.55;;;20.30;;
70332;SDS011;57747;43.548;-5.704;2023-02-18T03:36:08;41.38;;;21.17;;
70332;SDS011;57747;43.548;-5.704;2023-02-18T03:38:43;52.75;;;20.05;;
70332;SDS011;57747;43.548;-5.704;2023-02-18T03:41:09;46.67;;;18.27;;
70332;SDS011;57747;43.548;-5.704;2023-02-18T03:43:39;51.33;;;20.13;;
70332;SDS011;57747;43.548;-5.704;2023-02-18T03:46:04;49.38;;;19.77;;
70332;SDS011;57747;43.548;-5.704;2023-02-18T03:48:32;49.40;;;20.63;;
70332;SDS011;57747;43.548;-5.704;2023-02-18T03:50:58;54.72;;;18.52;;
70332;SDS011;57747;43.548;-5.704;2023-02-18T03:53:23;47.30;;;20.30;;
70332;SDS011;57747;43.548;-5.704;2023-02-18T03:55:49;44.28;;;19.20;;
70332;SDS011;57747;43.548;-5.704;2023-02-18T03:58:14;56.10;;;19.92;;
70332;SDS011;57747;43.548;-5.704;2023-02-18T04:00:40;55.10;;;18.35;;
70332;SDS011;57747;43.548;-5.704;2023-02-18T04:03:05;41.63;;;18.50;;
70332;SDS011;57747;43.548;-5.704;2023-02-18T04:05:31;54.55;;;20.92;;
70332;SDS011;57747;43.548;-5.704;2023-02-18T04:07:56;59.42;;;22.92;;
70332;SDS011;57747;43.548;-5.704;2023-02-18T04:10:21;60.92;;;22.15;;
70332;SDS011;57747;43.548;-5.704;2023-02-18T04:12:47;59.30;;;19.45;;
70332;SDS011;57747;43.548;-5.704;2023-02-18T04:15:12;61.95;;;21.38;;
70332;SDS011;57747;43.548;-5.704;2023-02-18T04:17:37;60.38;;;21.30;;
70332;SDS011;57747;43.548;-5.704;2023-02-18T04:20:03;43.63;;;21.25;;
70332;SDS011;57747;43.548;-5.704;2023-02-18T04:22:28;73.57;;;22.65;;
70332;SDS011;57747;43.548;-5.704;2023-02-18T04:24:54;59.60;;;21.35;;
70332;SDS011;57747;43.548;-5.704;2023-02-18T04:27:19;49.60;;;20.27;;
70332;SDS011;57747;43.548;-5.704;2023-02-18T04:29:45;53.75;;;20.50;;
70332;SDS011;57747;43.548;-5.704;2023-02-18T04:32:10;51.85;;;19.02;;
70332;SDS011;57747;43.548;-5.704;2023-02-18T04:34:35;43.95;;;18.73;;
70332;SDS011;57747;43.548;-5.704;2023-02-18T04:37:01;40.72;;;17.85;;
70332;SDS011;57747;43.548;-5.704;2023-02-18T04:39:29;57.78;;;16.65;;
70332;SDS011;57747;43.548;-5.704;2023-02-18T04:41:54;33.10;;;16.05;;
70332;SDS011;57747;43.548;-5.704;2023-02-18T04:44:20;45.00;;;16.15;;
70332;SDS011;57747;43.548;-5.704;2023-02-18T04:46:45;41.25;;;19.05;;
70332;SDS011;57747;43.548;-5.704;2023-02-18T04:49:10;68.10;;;21.45;;
70332;SDS011;57747;43.548;-5.704;2023-02-18T04:51:36;44.55;;;20.83;;
70332;SDS011;57747;43.548;-5.704;2023-02-18T04:54:02;47.05;;;21.40;;
70332;SDS011;57747;43.548;-5.704;2023-02-18T04:56:29;55.15;;;21.15;;
70332;SDS011;57747;43.548;-5.704;2023-02-18T04:58:55;55.58;;;20.98;;
70332;SDS011;57747;43.548;-5.704;2023-02-18T05:01:20;59.17;;;22.77;;
70332;SDS011;57747;43.548;-5.704;2023-02-18T05:03:46;56.20;;;21.30;;
70332;SDS011;57747;43.548;-5.704;2023-02-18T05:06:12;53.53;;;20.98;;
70332;SDS011;57747;43.548;-5.704;2023-02-18T05:08:37;70.60;;;18.73;;
70332;SDS011;57747;43.548;-5.704;2023-02-18T05:11:08;54.58;;;18.40;;
70332;SDS011;57747;43.548;-5.704;2023-02-18T05:13:34;49.25;;;17.10;;
70332;SDS011;57747;43.548;-5.704;2023-02-18T05:15:59;47.22;;;18.15;;
70332;SDS011;57747;43.548;-5.704;2023-02-18T05:18:25;41.80;;;17.90;;
70332;SDS011;57747;43.548;-5.704;2023-02-18T05:20:50;34.42;;;16.90;;
70332;SDS011;57747;43.548;-5.704;2023-02-18T05:23:16;35.80;;;16.10;;
70332;SDS011;57747;43.548;-5.704;2023-02-18T05:25:44;35.08;;;16.63;;
70332;SDS011;57747;43.548;-5.704;2023-02-18T05:28:09;24.80;;;13.75;;
70332;SDS011;57747;43.548;-5.704;2023-02-18T05:30:37;41.20;;;16.17;;
70332;SDS011;57747;43.548;-5.704;2023-02-18T05:33:03;33.80;;;16.83;;
70332;SDS011;57747;43.548;-5.704;2023-02-18T05:35:28;36.03;;;20.52;;
70332;SDS011;57747;43.548;-5.704;2023-02-18T05:37:53;44.95;;;22.27;;
70332;SDS011;57747;43.548;-5.704;2023-02-18T05:40:21;50.75;;;18.20;;
70332;SDS011;57747;43.548;-5.704;2023-02-18T05:42:49;52.35;;;18.75;;
70332;SDS011;57747;43.548;-5.704;2023-02-18T05:45:15;31.63;;;17.27;;
70332;SDS011;57747;43.548;-5.704;2023-02-18T05:47:40;38.63;;;18.48;;
70332;SDS011;57747;43.548;-5.704;2023-02-18T05:50:06;36.72;;;19.55;;
70332;SDS011;57747;43.548;-5.704;2023-02-18T05:52:32;48.33;;;20.58;;
70332;SDS011;57747;43.548;-5.704;2023-02-18T05:54:57;54.92;;;21.88;;
70332;SDS011;57747;43.548;-5.704;2023-02-18T05:57:23;39.65;;;18.52;;
70332;SDS011;57747;43.548;-5.704;2023-02-18T05:59:49;34.42;;;15.20;;
70332;SDS011;57747;43.548;-5.704;2023-02-18T06:02:14;26.60;;;15.48;;
70332;SDS011;57747;43.548;-5.704;2023-02-18T06:04:40;33.58;;;15.40;;
70332;SDS011;57747;43.548;-5.704;2023-02-18T06:07:05;37.75;;;16.38;;
70332;SDS011;57747;43.548;-5.704;2023-02-18T06:09:31;24.92;;;13.93;;
70332;SDS011;57747;43.548;-5.704;2023-02-18T06:11:56;27.35;;;13.77;;
70332;SDS011;57747;43.548;-5.704;2023-02-18T06:14:21;32.60;;;14.75;;
70332;SDS011;57747;43.548;-5.704;2023-02-18T06:16:47;24.70;;;14.55;;
70332;SDS011;57747;43.548;-5.704;2023-02-18T06:19:12;25.58;;;15.13;;
70332;SDS011;57747;43.548;-5.704;2023-02-18T06:21:38;36.20;;;16.27;;
70332;SDS011;57747;43.548;-5.704;2023-02-18T06:24:03;44.65;;;19.13;;
70332;SDS011;57747;43.548;-5.704;2023-02-18T06:26:29;41.10;;;19.00;;
70332;SDS011;57747;43.548;-5.704;2023-02-18T06:28:54;47.13;;;19.30;;
70332;SDS011;57747;43.548;-5.704;2023-02-18T06:31:20;46.83;;;20.17;;
70332;SDS011;57747;43.548;-5.704;2023-02-18T06:33:45;56.28;;;22.00;;
70332;SDS011;57747;43.548;-5.704;2023-02-18T06:36:11;56.58;;;20.30;;
70332;SDS011;57747;43.548;-5.704;2023-02-18T06:38:40;47.20;;;18.52;;
70332;SDS011;57747;43.548;-5.704;2023-02-18T06:41:09;40.15;;;16.15;;
70332;SDS011;57747;43.548;-5.704;2023-02-18T06:43:35;39.13;;;16.05;;
70332;SDS011;57747;43.548;-5.704;2023-02-18T06:46:01;48.17;;;17.05;;
70332;SDS011;57747;43.548;-5.704;2023-02-18T06:48:27;36.83;;;16.83;;
70332;SDS011;57747;43.548;-5.704;2023-02-18T06:50:52;68.85;;;20.75;;
70332;SDS011;57747;43.548;-5.704;2023-02-18T06:53:17;78.03;;;21.15;;
70332;SDS011;57747;43.548;-5.704;2023-02-18T06:55:43;61.92;;;19.02;;
70332;SDS011;57747;43.548;-5.704;2023-02-18T06:58:10;41.33;;;14.88;;
70332;SDS011;57747;43.548;-5.704;2023-02-18T07:00:38;38.45;;;16.30;;
70332;SDS011;57747;43.548;-5.704;2023-02-18T07:03:06;32.70;;;16.80;;
70332;SDS011;57747;43.548;-5.704;2023-02-18T07:05:32;34.63;;;16.88;;
70332;SDS011;57747;43.548;-5.704;2023-02-18T07:07:59;28.70;;;15.85;;
70332;SDS011;57747;43.548;-5.704;2023-02-18T07:10:25;34.33;;;15.27;;
70332;SDS011;57747;43.548;-5.704;2023-02-18T07:12:50;29.90;;;15.90;;
70332;SDS011;57747;43.548;-5.704;2023-02-18T07:15:16;35.28;;;17.38;;
70332;SDS011;57747;43.548;-5.704;2023-02-18T07:17:41;35.15;;;16.02;;
70332;SDS011;57747;43.548;-5.704;2023-02-18T07:20:07;38.47;;;15.50;;
70332;SDS011;57747;43.548;-5.704;2023-02-18T07:22:32;32.03;;;15.38;;
70332;SDS011;57747;43.548;-5.704;2023-02-18T07:25:00;31.67;;;15.07;;
70332;SDS011;57747;43.548;-5.704;2023-02-18T07:27:25;44.03;;;17.60;;
70332;SDS011;57747;43.548;-5.704;2023-02-18T07:29:51;45.38;;;18.83;;
70332;SDS011;57747;43.548;-5.704;2023-02-18T07:32:17;46.58;;;18.90;;
70332;SDS011;57747;43.548;-5.704;2023-02-18T07:34:43;33.03;;;17.13;;
70332;SDS011;57747;43.548;-5.704;2023-02-18T07:37:08;28.67;;;14.82;;
70332;SDS011;57747;43.548;-5.704;2023-02-18T07:39:35;39.22;;;16.65;;
70332;SDS011;57747;43.548;-5.704;2023-02-18T07:42:02;43.72;;;14.98;;
70332;SDS011;57747;43.548;-5.704;2023-02-18T07:44:28;45.45;;;17.23;;
70332;SDS011;57747;43.548;-5.704;2023-02-18T07:46:56;51.75;;;17.95;;
70332;SDS011;57747;43.548;-5.704;2023-02-18T07:49:22;50.10;;;17.27;;
70332;SDS011;57747;43.548;-5.704;2023-02-18T07:51:48;39.33;;;16.83;;
70332;SDS011;57747;43.548;-5.704;2023-02-18T07:54:14;53.97;;;18.45;;
70332;SDS011;57747;43.548;-5.704;2023-02-18T07:56:43;40.80;;;17.88;;
70332;SDS011;57747;43.548;-5.704;2023-02-18T07:59:08;42.50;;;17.27;;
70332;SDS011;57747;43.548;-5.704;2023-02-18T08:01:34;50.03;;;19.30;;
70332;SDS011;57747;43.548;-5.704;2023-02-18T08:03:59;43.72;;;17.70;;
70332;SDS011;57747;43.548;-5.704;2023-02-18T08:06:26;40.45;;;18.48;;
70332;SDS011;57747;43.548;-5.704;2023-02-18T08:08:54;50.13;;;18.52;;
70332;SDS011;57747;43.548;-5.704;2023-02-18T08:11:20;34.15;;;15.27;;
70332;SDS011;57747;43.548;-5.704;2023-02-18T08:13:46;44.38;;;18.35;;
70332;SDS011;57747;43.548;-5.704;2023-02-18T08:16:12;54.55;;;17.48;;
70332;SDS011;57747;43.548;-5.704;2023-02-18T08:18:37;49.97;;;18.02;;
70332;SDS011;57747;43.548;-5.704;2023-02-18T08:21:03;47.03;;;17.52;;
70332;SDS011;57747;43.548;-5.704;2023-02-18T08:23:28;43.58;;;17.40;;
70332;SDS011;57747;43.548;-5.704;2023-02-18T08:25:54;49.67;;;17.38;;
70332;SDS011;57747;43.548;-5.704;2023-02-18T08:28:24;49.10;;;17.92;;
70332;SDS011;57747;43.548;-5.704;2023-02-18T08:30:54;44.58;;;17.05;;
70332;SDS011;57747;43.548;-5.704;2023-02-18T08:33:19;46.00;;;18.38;;
70332;SDS011;57747;43.548;-5.704;2023-02-18T08:35:45;47.55;;;18.38;;
70332;SDS011;57747;43.548;-5.704;2023-02-18T08:38:11;42.90;;;18.05;;
70332;SDS011;57747;43.548;-5.704;2023-02-18T08:40:39;53.33;;;19.98;;
70332;SDS011;57747;43.548;-5.704;2023-02-18T08:43:06;60.35;;;21.13;;
70332;SDS011;57747;43.548;-5.704;2023-02-18T08:45:32;57.65;;;21.00;;
70332;SDS011;57747;43.548;-5.704;2023-02-18T08:47:57;33.75;;;14.63;;
70332;SDS011;57747;43.548;-5.704;2023-02-18T08:50:23;32.47;;;12.23;;
70332;SDS011;57747;43.548;-5.704;2023-02-18T08:52:53;31.15;;;12.98;;
70332;SDS011;57747;43.548;-5.704;2023-02-18T08:55:19;51.47;;;16.00;;
70332;SDS011;57747;43.548;-5.704;2023-02-18T08:57:48;59.85;;;18.50;;
70332;SDS011;57747;43.548;-5.704;2023-02-18T09:00:14;59.33;;;23.30;;
70332;SDS011;57747;43.548;-5.704;2023-02-18T09:02:42;43.95;;;19.17;;
70332;SDS011;57747;43.548;-5.704;2023-02-18T09:05:08;51.83;;;18.67;;
70332;SDS011;57747;43.548;-5.704;2023-02-18T09:07:34;58.95;;;18.67;;
70332;SDS011;57747;43.548;-5.704;2023-02-18T09:10:02;70.05;;;21.75;;
70332;SDS011;57747;43.548;-5.704;2023-02-18T09:12:27;93.05;;;24.52;;
70332;SDS011;57747;43.548;-5.704;2023-02-18T09:14:56;55.30;;;21.35;;
70332;SDS011;57747;43.548;-5.704;2023-02-18T09:17:24;68.10;;;23.85;;
70332;SDS011;57747;43.548;-5.704;2023-02-18T09:19:49;90.28;;;26.27;;
70332;SDS011;57747;43.548;-5.704;2023-02-18T09:22:14;54.72;;;19.88;;
70332;SDS011;57747;43.548;-5.704;2023-02-18T09:24:40;46.35;;;17.77;;
70332;SDS011;57747;43.548;-5.704;2023-02-18T09:27:08;62.08;;;20.00;;
70332;SDS011;57747;43.548;-5.704;2023-02-18T09:29:36;50.90;;;17.75;;
70332;SDS011;57747;43.548;-5.704;2023-02-18T09:32:02;40.42;;;16.27;;
70332;SDS011;57747;43.548;-5.704;2023-02-18T09:34:28;52.92;;;18.58;;
70332;SDS011;57747;43.548;-5.704;2023-02-18T09:36:53;41.90;;;18.05;;
70332;SDS011;57747;43.548;-5.704;2023-02-18T09:39:21;38.83;;;16.92;;
70332;SDS011;57747;43.548;-5.704;2023-02-18T09:41:47;49.38;;;17.55;;
70332;SDS011;57747;43.548;-5.704;2023-02-18T09:44:22;34.20;;;17.20;;
70332;SDS011;57747;43.548;-5.704;2023-02-18T09:46:52;33.63;;;15.30;;
70332;SDS011;57747;43.548;-5.704;2023-02-18T09:49:29;34.25;;;15.63;;
70332;SDS011;57747;43.548;-5.704;2023-02-18T09:52:00;43.63;;;16.75;;
70332;SDS011;57747;43.548;-5.704;2023-02-18T09:54:27;41.75;;;16.27;;
70332;SDS011;57747;43.548;-5.704;2023-02-18T09:56:57;30.17;;;14.80;;
70332;SDS011;57747;43.548;-5.704;2023-02-18T09:59:26;24.90;;;13.23;;
70332;SDS011;57747;43.548;-5.704;2023-02-18T10:01:52;22.02;;;12.45;;
70332;SDS011;57747;43.548;-5.704;2023-02-18T10:04:28;24.50;;;13.93;;
70332;SDS011;57747;43.548;-5.704;2023-02-18T10:06:56;19.48;;;12.35;;
70332;SDS011;57747;43.548;-5.704;2023-02-18T10:09:24;25.85;;;13.85;;
70332;SDS011;57747;43.548;-5.704;2023-02-18T10:14:33;37.90;;;15.68;;
70332;SDS011;57747;43.548;-5.704;2023-02-18T10:17:00;35.22;;;16.50;;
70332;SDS011;57747;43.548;-5.704;2023-02-18T10:19:32;41.30;;;17.85;;
70332;SDS011;57747;43.548;-5.704;2023-02-18T10:22:00;30.70;;;16.60;;
70332;SDS011;57747;43.548;-5.704;2023-02-18T10:24:33;40.85;;;16.98;;
70332;SDS011;57747;43.548;-5.704;2023-02-18T10:27:01;41.45;;;18.45;;
70332;SDS011;57747;43.548;-5.704;2023-02-18T10:29:27;44.85;;;17.92;;
70332;SDS011;57747;43.548;-5.704;2023-02-18T10:31:55;40.35;;;19.75;;
70332;SDS011;57747;43.548;-5.704;2023-02-18T10:42:20;53.92;;;21.17;;
70332;SDS011;57747;43.548;-5.704;2023-02-18T10:47:37;45.35;;;20.98;;
70332;SDS011;57747;43.548;-5.704;2023-02-18T10:50:10;41.50;;;18.70;;
70332;SDS011;57747;43.548;-5.704;2023-02-18T10:52:41;47.72;;;21.42;;
70332;SDS011;57747;43.548;-5.704;2023-02-18T10:55:14;43.45;;;20.33;;
70332;SDS011;57747;43.548;-5.704;2023-02-18T10:57:52;53.60;;;19.08;;
70332;SDS011;57747;43.548;-5.704;2023-02-18T11:00:19;51.30;;;20.67;;
70332;SDS011;57747;43.548;-5.704;2023-02-18T11:02:59;50.90;;;18.98;;
70332;SDS011;57747;43.548;-5.704;2023-02-18T11:05:27;40.58;;;15.70;;
70332;SDS011;57747;43.548;-5.704;2023-02-18T11:08:01;38.20;;;15.25;;
70332;SDS011;57747;43.548;-5.704;2023-02-18T11:10:31;26.48;;;12.68;;
70332;SDS011;57747;43.548;-5.704;2023-02-18T11:13:07;26.95;;;12.77;;
70332;SDS011;57747;43.548;-5.704;2023-02-18T11:15:34;26.50;;;13.82;;
70332;SDS011;57747;43.548;-5.704;2023-02-18T11:20:44;28.95;;;11.07;;
70332;SDS011;57747;43.548;-5.704;2023-02-18T11:23:19;24.92;;;11.05;;
70332;SDS011;57747;43.548;-5.704;2023-02-18T11:25:55;22.65;;;11.73;;
70332;SDS011;57747;43.548;-5.704;2023-02-18T11:30:53;27.80;;;12.15;;
70332;SDS011;57747;43.548;-5.704;2023-02-18T11:33:28;24.85;;;11.13;;
70332;SDS011;57747;43.548;-5.704;2023-02-18T11:35:56;27.40;;;10.07;;
70332;SDS011;57747;43.548;-5.704;2023-02-18T11:38:27;18.10;;;10.07;;
70332;SDS011;57747;43.548;-5.704;2023-02-18T11:40:57;20.33;;;10.27;;
70332;SDS011;57747;43.548;-5.704;2023-02-18T11:43:27;17.42;;;9.23;;
70332;SDS011;57747;43.548;-5.704;2023-02-18T11:48:38;14.60;;;8.98;;
70332;SDS011;57747;43.548;-5.704;2023-02-18T11:51:12;15.48;;;9.27;;
70332;SDS011;57747;43.548;-5.704;2023-02-18T11:53:50;17.60;;;9.38;;
70332;SDS011;57747;43.548;-5.704;2023-02-18T11:56:18;18.67;;;9.70;;
70332;SDS011;57747;43.548;-5.704;2023-02-18T11:58:45;16.60;;;7.85;;
70332;SDS011;57747;43.548;-5.704;2023-02-18T12:01:13;21.20;;;8.40;;
70332;SDS011;57747;43.548;-5.704;2023-02-18T12:06:11;12.30;;;8.68;;
70332;SDS011;57747;43.548;-5.704;2023-02-18T12:08:44;19.17;;;8.32;;
70332;SDS011;57747;43.548;-5.704;2023-02-18T12:11:14;16.63;;;9.45;;
70332;SDS011;57747;43.548;-5.704;2023-02-18T12:13:49;13.80;;;7.10;;
70332;SDS011;57747;43.548;-5.704;2023-02-18T12:29:02;15.98;;;8.13;;
70332;SDS011;57747;43.548;-5.704;2023-02-18T12:31:36;20.77;;;8.55;;
70332;SDS011;57747;43.548;-5.704;2023-02-18T12:54:47;20.30;;;8.32;;
70332;SDS011;57747;43.548;-5.704;2023-02-18T12:57:29;19.63;;;9.35;;
70332;SDS011;57747;43.548;-5.704;2023-02-18T13:07:41;19.45;;;9.05;;
70332;SDS011;57747;43.548;-5.704;2023-02-18T13:15:26;14.05;;;7.75;;
70332;SDS011;57747;43.548;-5.704;2023-02-18T13:17:54;20.10;;;8.80;;
70332;SDS011;57747;43.548;-5.704;2023-02-18T13:20:28;22.67;;;10.00;;
70332;SDS011;57747;43.548;-5.704;2023-02-18T13:22:59;13.95;;;8.38;;
70332;SDS011;57747;43.548;-5.704;2023-02-18T13:25:24;14.45;;;9.07;;
70332;SDS011;57747;43.548;-5.704;2023-02-18T13:27:57;21.25;;;9.00;;
70332;SDS011;57747;43.548;-5.704;2023-02-18T13:35:47;15.15;;;8.43;;
70332;SDS011;57747;43.548;-5.704;2023-02-18T13:41:00;22.27;;;9.98;;
70332;SDS011;57747;43.548;-5.704;2023-02-18T13:46:01;21.50;;;8.45;;
70332;SDS011;57747;43.548;-5.704;2023-02-18T13:48:27;20.33;;;8.52;;
70332;SDS011;57747;43.548;-5.704;2023-02-18T13:50:53;18.05;;;8.93;;
70332;SDS011;57747;43.548;-5.704;2023-02-18T13:53:24;14.68;;;7.95;;
70332;SDS011;57747;43.548;-5.704;2023-02-18T13:55:52;15.40;;;8.68;;
70332;SDS011;57747;43.548;-5.704;2023-02-18T13:58:19;18.77;;;8.38;;
70332;SDS011;57747;43.548;-5.704;2023-02-18T14:00:50;15.98;;;8.57;;
70332;SDS011;57747;43.548;-5.704;2023-02-18T14:04:16;16.25;;;8.65;;
70332;SDS011;57747;43.548;-5.704;2023-02-18T14:08:40;16.83;;;8.25;;
70332;SDS011;57747;43.548;-5.704;2023-02-18T14:13:41;18.67;;;8.55;;
70332;SDS011;57747;43.548;-5.704;2023-02-18T14:16:09;16.35;;;8.45;;
70332;SDS011;57747;43.548;-5.704;2023-02-18T14:33:31;21.98;;;7.75;;
70332;SDS011;57747;43.548;-5.704;2023-02-18T14:38:41;14.82;;;6.53;;
70332;SDS011;57747;43.548;-5.704;2023-02-18T14:51:47;11.40;;;5.70;;
70332;SDS011;57747;43.548;-5.704;2023-02-18T14:54:15;13.57;;;6.32;;
70332;SDS011;57747;43.548;-5.704;2023-02-18T14:56:48;16.23;;;6.30;;
70332;SDS011;57747;43.548;-5.704;2023-02-18T14:59:15;9.68;;;6.20;;
70332;SDS011;57747;43.548;-5.704;2023-02-18T15:01:42;11.52;;;6.68;;
70332;SDS011;57747;43.548;-5.704;2023-02-18T15:04:10;9.05;;;5.40;;
70332;SDS011;57747;43.548;-5.704;2023-02-18T15:06:38;15.05;;;5.63;;
70332;SDS011;57747;43.548;-5.704;2023-02-18T15:09:19;12.65;;;5.63;;
70332;SDS011;57747;43.548;-5.704;2023-02-18T15:11:48;7.82;;;4.65;;
70332;SDS011;57747;43.548;-5.704;2023-02-18T15:14:18;12.70;;;5.07;;
70332;SDS011;57747;43.548;-5.704;2023-02-18T15:16:45;12.20;;;5.47;;
70332;SDS011;57747;43.548;-5.704;2023-02-18T15:19:12;10.95;;;4.63;;
70332;SDS011;57747;43.548;-5.704;2023-02-18T15:21:40;11.45;;;4.30;;
70332;SDS011;57747;43.548;-5.704;2023-02-18T15:24:07;11.00;;;5.63;;
70332;SDS011;57747;43.548;-5.704;2023-02-18T15:26:36;15.35;;;5.70;;
70332;SDS011;57747;43.548;-5.704;2023-02-18T15:29:14;11.57;;;5.50;;
70332;SDS011;57747;43.548;-5.704;2023-02-18T15:31:39;14.50;;;7.18;;
70332;SDS011;57747;43.548;-5.704;2023-02-18T15:34:17;11.95;;;5.60;;
70332;SDS011;57747;43.548;-5.704;2023-02-18T15:36:49;12.48;;;5.70;;
70332;SDS011;57747;43.548;-5.704;2023-02-18T15:39:14;19.15;;;5.68;;
70332;SDS011;57747;43.548;-5.704;2023-02-18T15:41:40;10.73;;;5.05;;
70332;SDS011;57747;43.548;-5.704;2023-02-18T15:44:05;15.27;;;5.05;;
70332;SDS011;57747;43.548;-5.704;2023-02-18T15:46:32;11.85;;;4.80;;
70332;SDS011;57747;43.548;-5.704;2023-02-18T15:48:58;8.20;;;4.13;;
70332;SDS011;57747;43.548;-5.704;2023-02-18T15:51:27;14.93;;;5.22;;
70332;SDS011;57747;43.548;-5.704;2023-02-18T15:53:57;11.80;;;4.45;;
70332;SDS011;57747;43.548;-5.704;2023-02-18T15:56:31;7.07;;;4.50;;
70332;SDS011;57747;43.548;-5.704;2023-02-18T16:02:07;11.85;;;4.95;;
70332;SDS011;57747;43.548;-5.704;2023-02-18T16:04:37;9.00;;;4.50;;
70332;SDS011;57747;43.548;-5.704;2023-02-18T16:07:16;6.55;;;4.40;;
70332;SDS011;57747;43.548;-5.704;2023-02-18T16:09:48;9.60;;;3.92;;
70332;SDS011;57747;43.548;-5.704;2023-02-18T16:12:36;10.55;;;5.35;;
70332;SDS011;57747;43.548;-5.704;2023-02-18T16:14:59;9.80;;;4.68;;
70332;SDS011;57747;43.548;-5.704;2023-02-18T16:17:25;12.02;;;5.00;;
70332;SDS011;57747;43.548;-5.704;2023-02-18T16:24:56;12.70;;;5.53;;
70332;SDS011;57747;43.548;-5.704;2023-02-18T16:27:26;21.45;;;9.88;;
70332;SDS011;57747;43.548;-5.704;2023-02-18T16:29:52;92.90;;;39.47;;
70332;SDS011;57747;43.548;-5.704;2023-02-18T16:32:20;23.70;;;9.50;;
70332;SDS011;57747;43.548;-5.704;2023-02-18T16:34:46;16.10;;;5.50;;
70332;SDS011;57747;43.548;-5.704;2023-02-18T16:37:15;17.55;;;6.13;;
70332;SDS011;57747;43.548;-5.704;2023-02-18T16:39:59;10.80;;;5.68;;
70332;SDS011;57747;43.548;-5.704;2023-02-18T16:42:24;18.25;;;6.32;;
70332;SDS011;57747;43.548;-5.704;2023-02-18T16:44:53;24.90;;;9.98;;
70332;SDS011;57747;43.548;-5.704;2023-02-18T16:47:19;25.00;;;11.45;;
70332;SDS011;57747;43.548;-5.704;2023-02-18T16:49:45;18.17;;;7.43;;
70332;SDS011;57747;43.548;-5.704;2023-02-18T16:52:11;12.82;;;6.22;;
70332;SDS011;57747;43.548;-5.704;2023-02-18T16:54:37;26.00;;;10.52;;
70332;SDS011;57747;43.548;-5.704;2023-02-18T16:57:03;20.98;;;8.57;;
70332;SDS011;57747;43.548;-5.704;2023-02-18T16:59:28;16.08;;;7.75;;